Time;durP1;ratioP1;P1;durP2;ratioP2;P2;SDS_P1;SDS_P2;PMS_P1;PMS_P2;Temp;Humidity;BMP_temperature;BMP_pressure;BME280_temperature;BME280_humidity;BME280_pressure;Samples;Min_cycle;Max_cycle;Signal;HPM_P1;HPM_P2
2023/01/06 00:02:25;;;;;;;3.67;1.60;;;13.80;99.90;;;;;;5067320;28;20322;-32
2023/01/06 00:04:52;;;;;;;3.63;1.80;;;13.80;99.90;;;;;;5066542;28;20342;-31
2023/01/06 00:07:22;;;;;;;4.90;1.50;;;13.80;99.90;;;;;;5066735;28;20235;-31
2023/01/06 00:09:49;;;;;;;3.17;1.37;;;13.80;99.90;;;;;;5065977;28;20203;-31
2023/01/06 00:12:16;;;;;;;3.60;1.40;;;13.80;99.90;;;;;;5066438;28;20308;-31
2023/01/06 00:14:46;;;;;;;2.67;1.40;;;13.80;99.90;;;;;;5063819;28;20276;-31
2023/01/06 00:17:16;;;;;;;2.43;1.37;;;13.80;99.90;;;;;;5062979;28;20207;-31
2023/01/06 00:19:53;;;;;;;5.30;1.27;;;13.80;99.90;;;;;;5065244;28;20546;-31
2023/01/06 00:22:20;;;;;;;4.10;1.37;;;13.80;99.90;;;;;;5081914;28;20306;-32
2023/01/06 00:24:47;;;;;;;6.17;1.53;;;13.70;99.90;;;;;;5064416;28;20713;-31
2023/01/06 00:27:16;;;;;;;3.37;1.50;;;13.70;99.90;;;;;;5063426;28;20314;-31
2023/01/06 00:29:43;;;;;;;3.80;1.30;;;13.70;99.90;;;;;;5065035;28;20207;-31
2023/01/06 00:32:10;;;;;;;3.33;1.07;;;13.70;99.90;;;;;;5066153;28;20212;-32
2023/01/06 00:34:37;;;;;;;2.63;1.00;;;13.70;99.90;;;;;;5064448;28;20629;-31
2023/01/06 00:37:05;;;;;;;3.87;1.23;;;13.70;99.90;;;;;;5065220;28;20207;-31
2023/01/06 00:39:32;;;;;;;6.50;1.60;;;13.70;99.90;;;;;;5065905;28;20682;-32
2023/01/06 00:42:05;;;;;;;7.33;1.77;;;13.70;99.90;;;;;;5064832;28;20216;-30
2023/01/06 00:44:37;;;;;;;3.47;1.10;;;13.70;99.90;;;;;;5064973;28;20597;-31
2023/01/06 00:47:11;;;;;;;3.20;1.10;;;13.70;99.90;;;;;;5065708;28;20741;-31
2023/01/06 00:49:41;;;;;;;3.57;1.33;;;13.70;99.90;;;;;;5065487;28;20294;-31
2023/01/06 00:52:08;;;;;;;3.30;1.23;;;13.70;99.90;;;;;;5064026;28;20223;-31
2023/01/06 00:54:38;;;;;;;4.00;1.33;;;13.60;99.90;;;;;;5065438;28;20697;-31
2023/01/06 00:57:06;;;;;;;3.40;1.20;;;13.60;99.90;;;;;;5065531;28;20238;-31
2023/01/06 00:59:34;;;;;;;4.83;1.27;;;13.60;99.90;;;;;;5063251;28;20231;-31
2023/01/06 01:02:02;;;;;;;3.37;1.10;;;13.60;99.90;;;;;;5065489;28;20204;-31
2023/01/06 01:04:31;;;;;;;5.47;1.30;;;13.60;99.90;;;;;;5065543;28;20340;-31
2023/01/06 01:06:59;;;;;;;4.37;1.00;;;13.60;99.90;;;;;;5065220;28;20223;-31
2023/01/06 01:09:30;;;;;;;2.97;1.20;;;13.60;99.90;;;;;;5065174;28;20204;-32
2023/01/06 01:12:13;;;;;;;3.13;1.23;;;13.60;99.90;;;;;;5065450;28;20245;-31
2023/01/06 01:14:54;;;;;;;2.43;1.00;;;13.60;99.90;;;;;;5059860;28;20265;-31
2023/01/06 01:17:26;;;;;;;4.13;1.13;;;13.60;99.90;;;;;;5055485;28;20270;-32
2023/01/06 01:19:58;;;;;;;3.27;1.07;;;13.60;99.90;;;;;;5065053;28;20324;-31
2023/01/06 01:22:30;;;;;;;5.10;1.60;;;13.60;99.90;;;;;;5064185;28;20207;-31
2023/01/06 01:24:57;;;;;;;3.47;0.93;;;13.50;99.90;;;;;;5064093;28;20593;-31
2023/01/06 01:27:24;;;;;;;3.87;1.10;;;13.60;99.90;;;;;;5065756;28;20247;-31
2023/01/06 01:29:52;;;;;;;2.90;0.90;;;13.60;99.90;;;;;;5065329;28;20204;-32
2023/01/06 01:32:19;;;;;;;4.57;1.20;;;13.60;99.90;;;;;;5062832;28;20215;-31
2023/01/06 01:34:50;;;;;;;3.37;0.87;;;13.60;99.90;;;;;;5079521;28;20205;-31
2023/01/06 01:37:19;;;;;;;3.00;0.90;;;13.60;99.90;;;;;;5061959;28;20215;-31
2023/01/06 01:39:48;;;;;;;4.43;1.20;;;13.50;99.90;;;;;;5065546;28;20314;-32
2023/01/06 01:42:18;;;;;;;3.13;0.90;;;13.50;99.90;;;;;;5063963;28;20223;-31
2023/01/06 01:44:57;;;;;;;2.27;1.00;;;13.60;99.90;;;;;;5064304;28;20208;-31
2023/01/06 01:47:40;;;;;;;2.90;1.00;;;13.60;99.90;;;;;;5077881;28;20697;-31
2023/01/06 01:50:45;;;;;;;2.67;0.93;;;13.60;99.90;;;;;;5063339;28;20247;-31
2023/01/06 01:53:21;;;;;;;3.40;1.00;;;13.60;99.90;;;;;;5058695;28;20222;-31
2023/01/06 01:55:50;;;;;;;2.17;1.00;;;13.60;99.90;;;;;;5074021;28;20199;-31
2023/01/06 01:58:31;;;;;;;2.50;1.03;;;13.50;99.90;;;;;;5059134;28;20232;-31
2023/01/06 02:01:05;;;;;;;5.37;1.50;;;13.50;99.90;;;;;;5064575;28;20211;-31
2023/01/06 02:03:35;;;;;;;2.60;0.90;;;13.50;99.90;;;;;;5062848;28;20214;-31
2023/01/06 02:06:15;;;;;;;4.53;1.30;;;13.50;99.90;;;;;;5068716;28;20238;-31
2023/01/06 02:08:53;;;;;;;5.40;1.20;;;13.60;99.90;;;;;;5066768;28;20372;-31
2023/01/06 02:11:22;;;;;;;2.60;1.00;;;13.50;99.90;;;;;;5068695;28;20203;-31
2023/01/06 02:14:00;;;;;;;2.07;0.80;;;13.50;99.90;;;;;;5066723;28;20669;-31
2023/01/06 02:16:56;;;;;;;3.03;0.97;;;13.50;99.90;;;;;;5067574;28;20555;-31
2023/01/06 02:19:50;;;;;;;2.90;0.97;;;13.50;99.90;;;;;;5067899;28;20223;-31
2023/01/06 02:22:48;;;;;;;3.30;0.90;;;13.50;99.90;;;;;;5068616;28;20556;-31
2023/01/06 02:25:26;;;;;;;3.30;0.90;;;13.50;99.90;;;;;;5065532;28;20217;-31
2023/01/06 02:28:12;;;;;;;1.90;0.90;;;13.50;99.90;;;;;;5061684;28;20223;-31
2023/01/06 02:30:48;;;;;;;2.53;0.80;;;13.50;99.90;;;;;;5067692;28;20876;-31
2023/01/06 02:33:33;;;;;;;2.50;0.80;;;13.50;99.90;;;;;;5068253;28;20650;-31
2023/01/06 02:36:24;;;;;;;1.13;0.83;;;13.50;99.90;;;;;;5068312;28;20216;-31
2023/01/06 02:39:26;;;;;;;5.60;1.00;;;13.50;99.90;;;;;;5066718;28;20222;-31
2023/01/06 02:41:56;;;;;;;3.83;0.80;;;13.50;99.90;;;;;;5061673;28;20709;-31
2023/01/06 02:44:47;;;;;;;2.33;0.80;;;13.40;99.90;;;;;;5065745;28;20206;-31
2023/01/06 02:47:38;;;;;;;2.47;0.73;;;13.50;99.90;;;;;;5082426;28;20223;-31
2023/01/06 02:50:25;;;;;;;2.03;0.70;;;13.50;99.90;;;;;;5067717;28;20222;-31
2023/01/06 02:53:02;;;;;;;2.83;0.90;;;13.50;99.90;;;;;;5060522;28;20224;-31
2023/01/06 02:55:51;;;;;;;3.07;0.80;;;13.50;99.90;;;;;;5067217;28;20222;-31
2023/01/06 02:58:45;;;;;;;1.30;0.80;;;13.50;99.90;;;;;;5061907;28;20243;-31
2023/01/06 03:01:27;;;;;;;2.87;0.90;;;13.50;99.90;;;;;;5060407;28;20215;-31
2023/01/06 03:03:59;;;;;;;2.57;1.10;;;13.50;99.90;;;;;;5066421;28;20354;-32
2023/01/06 03:06:30;;;;;;;2.03;0.83;;;13.50;99.90;;;;;;5067799;28;20200;-31
2023/01/06 03:09:02;;;;;;;2.10;0.90;;;13.50;99.90;;;;;;5067330;28;20196;-31
2023/01/06 03:11:35;;;;;;;4.77;0.80;;;13.40;99.90;;;;;;5066247;28;20212;-31
2023/01/06 03:14:17;;;;;;;3.37;0.90;;;13.40;99.90;;;;;;5063546;28;20250;-31
2023/01/06 03:16:47;;;;;;;1.93;0.77;;;13.50;99.90;;;;;;5064829;28;20207;-31
2023/01/06 03:19:16;;;;;;;3.63;0.90;;;13.40;99.90;;;;;;5067455;28;20251;-31
2023/01/06 03:21:49;;;;;;;2.50;0.77;;;13.40;99.90;;;;;;5082524;28;20219;-31
2023/01/06 03:24:17;;;;;;;1.80;1.00;;;13.50;99.90;;;;;;5065895;28;20235;-31
2023/01/06 03:26:47;;;;;;;0.97;0.70;;;13.50;99.90;;;;;;5066036;28;20252;-31
2023/01/06 03:29:16;;;;;;;2.10;0.80;;;13.50;99.90;;;;;;5066672;28;20617;-31
2023/01/06 03:32:19;;;;;;;4.40;0.80;;;13.50;99.90;;;;;;5066690;28;20200;-31
2023/01/06 03:34:49;;;;;;;2.93;0.70;;;13.50;99.90;;;;;;5061858;28;20234;-31
2023/01/06 03:37:56;;;;;;;3.87;1.13;;;13.50;99.90;;;;;;5066745;28;20219;-31
2023/01/06 03:40:41;;;;;;;1.63;0.70;;;13.40;99.90;;;;;;5067361;28;20203;-31
2023/01/06 03:43:23;;;;;;;1.77;0.80;;;13.40;99.90;;;;;;5059746;28;20643;-31
2023/01/06 03:46:10;;;;;;;3.60;1.07;;;13.40;99.90;;;;;;5065602;28;20243;-31
2023/01/06 03:48:56;;;;;;;2.87;0.90;;;13.40;99.90;;;;;;5063215;28;20273;-32
2023/01/06 03:51:29;;;;;;;2.57;0.90;;;13.40;99.90;;;;;;5060387;28;21009;-31
2023/01/06 03:53:59;;;;;;;3.10;0.87;;;13.40;99.90;;;;;;5065877;28;20212;-31
2023/01/06 03:56:44;;;;;;;2.53;0.63;;;13.40;99.90;;;;;;5066834;28;20333;-32
2023/01/06 03:59:24;;;;;;;2.20;0.90;;;13.40;99.90;;;;;;5063466;28;20541;-31
2023/01/06 04:01:53;;;;;;;2.10;1.00;;;13.40;99.90;;;;;;5066919;28;20228;-31
2023/01/06 04:04:21;;;;;;;1.90;1.10;;;13.40;99.90;;;;;;5066113;28;20338;-31
2023/01/06 04:06:50;;;;;;;4.17;1.03;;;13.40;99.90;;;;;;5066038;28;20210;-32
2023/01/06 04:09:17;;;;;;;1.90;0.90;;;13.40;99.90;;;;;;5066355;28;20836;-32
2023/01/06 04:14:30;;;;;;;1.80;0.90;;;13.30;99.90;;;;;;5065794;28;20801;-31
2023/01/06 04:16:57;;;;;;;2.27;0.90;;;13.30;99.90;;;;;;5066221;28;20207;-32
2023/01/06 04:19:25;;;;;;;4.30;1.00;;;13.30;99.90;;;;;;5065893;28;20207;-31
2023/01/06 04:21:52;;;;;;;2.80;0.80;;;13.30;99.90;;;;;;5066029;28;20203;-31
2023/01/06 04:24:19;;;;;;;3.50;0.80;;;13.30;99.90;;;;;;5062149;28;20280;-31
2023/01/06 04:26:46;;;;;;;1.33;0.90;;;13.30;99.90;;;;;;5065070;28;20229;-31
2023/01/06 04:29:13;;;;;;;1.10;0.77;;;13.30;99.90;;;;;;5065522;28;20749;-31
2023/01/06 04:31:43;;;;;;;2.70;0.90;;;13.30;99.90;;;;;;5066281;28;20207;-31
2023/01/06 04:34:10;;;;;;;3.20;0.93;;;13.30;99.90;;;;;;5063200;28;20196;-31
2023/01/06 04:36:39;;;;;;;1.70;0.90;;;13.30;99.90;;;;;;5066030;28;20213;-32
2023/01/06 04:39:09;;;;;;;6.27;1.30;;;13.30;99.90;;;;;;5062345;28;20294;-31
2023/01/06 04:41:41;;;;;;;2.43;0.60;;;13.30;99.90;;;;;;5061946;28;20284;-31
2023/01/06 04:44:08;;;;;;;1.17;1.00;;;13.20;99.90;;;;;;5062001;28;20216;-31
2023/01/06 04:46:37;;;;;;;1.60;0.77;;;13.20;99.90;;;;;;5065698;28;20273;-31
2023/01/06 04:49:05;;;;;;;2.37;0.90;;;13.20;99.90;;;;;;5065537;28;20309;-31
2023/01/06 04:51:32;;;;;;;1.80;0.80;;;13.20;99.90;;;;;;5065857;28;20250;-31
2023/01/06 04:54:01;;;;;;;3.67;0.90;;;13.20;99.90;;;;;;5064235;28;20646;-31
2023/01/06 04:56:31;;;;;;;2.67;0.77;;;13.10;99.90;;;;;;5064696;28;20223;-31
2023/01/06 04:58:58;;;;;;;3.53;0.80;;;13.10;99.90;;;;;;5064590;28;20211;-31
2023/01/06 05:01:26;;;;;;;2.43;0.90;;;13.10;99.90;;;;;;5065839;28;20204;-32
2023/01/06 05:03:54;;;;;;;2.33;0.70;;;13.20;99.90;;;;;;5065128;28;20207;-31
2023/01/06 05:06:21;;;;;;;2.77;0.90;;;13.20;99.90;;;;;;5066137;28;20210;-32
2023/01/06 05:08:48;;;;;;;2.40;0.73;;;13.10;99.90;;;;;;5063753;28;20314;-32
2023/01/06 05:11:22;;;;;;;1.50;0.80;;;13.10;99.90;;;;;;5066054;28;20707;-31
2023/01/06 05:13:54;;;;;;;3.53;0.93;;;13.10;99.90;;;;;;5064482;28;20210;-31
2023/01/06 05:16:28;;;;;;;3.37;1.00;;;13.00;99.90;;;;;;5058305;28;20216;-31
2023/01/06 05:18:58;;;;;;;2.40;0.80;;;13.00;99.90;;;;;;5065959;28;20203;-31
2023/01/06 05:21:28;;;;;;;1.70;0.83;;;13.00;99.90;;;;;;5065797;28;20211;-32
2023/01/06 05:23:59;;;;;;;3.23;0.90;;;13.00;99.90;;;;;;5045840;28;20294;-32
2023/01/06 05:26:28;;;;;;;2.33;0.90;;;13.00;99.90;;;;;;5064680;28;20215;-31
2023/01/06 05:29:00;;;;;;;1.17;0.90;;;13.00;99.90;;;;;;5064376;28;20318;-31
2023/01/06 05:31:29;;;;;;;2.40;1.10;;;13.00;99.90;;;;;;5064449;28;20211;-32
2023/01/06 05:33:56;;;;;;;2.23;0.80;;;13.00;99.90;;;;;;5065489;28;20604;-31
2023/01/06 05:36:25;;;;;;;1.67;1.03;;;13.00;99.90;;;;;;5065913;28;20221;-31
2023/01/06 05:38:53;;;;;;;2.40;1.27;;;13.00;99.90;;;;;;5064453;28;20230;-31
2023/01/06 05:41:21;;;;;;;3.83;1.20;;;13.00;99.90;;;;;;5056827;28;20744;-31
2023/01/06 05:43:50;;;;;;;1.67;1.03;;;13.00;99.90;;;;;;5063823;28;20762;-31
2023/01/06 05:46:19;;;;;;;2.00;1.00;;;13.00;99.90;;;;;;5065664;28;20215;-31
2023/01/06 05:48:46;;;;;;;1.10;0.93;;;13.10;99.90;;;;;;5058091;28;20326;-31
2023/01/06 05:51:15;;;;;;;3.00;1.10;;;13.10;99.90;;;;;;5065042;28;20650;-31
2023/01/06 05:53:45;;;;;;;1.43;0.93;;;13.10;99.90;;;;;;5065066;28;20700;-31
2023/01/06 05:56:18;;;;;;;1.50;0.97;;;13.10;99.90;;;;;;5065330;28;20721;-31
2023/01/06 05:58:50;;;;;;;1.70;1.13;;;13.20;99.90;;;;;;5077352;28;20258;-31
2023/01/06 06:01:35;;;;;;;2.77;1.03;;;13.20;99.90;;;;;;5064205;28;20260;-32
2023/01/06 06:04:03;;;;;;;1.67;1.20;;;13.20;99.90;;;;;;5070181;28;20215;-31
2023/01/06 06:06:33;;;;;;;3.03;1.03;;;13.20;99.90;;;;;;5060904;28;20253;-31
2023/01/06 06:09:05;;;;;;;2.07;0.90;;;13.20;99.90;;;;;;5062179;28;20230;-32
2023/01/06 06:11:32;;;;;;;2.03;1.13;;;13.20;99.90;;;;;;5065160;28;20752;-31
2023/01/06 06:14:02;;;;;;;1.40;0.87;;;13.20;99.90;;;;;;5063777;28;20293;-31
2023/01/06 06:16:29;;;;;;;2.20;1.10;;;13.30;99.90;;;;;;5062204;28;20545;-31
2023/01/06 06:18:59;;;;;;;2.03;0.77;;;13.20;99.90;;;;;;5064392;28;20381;-31
2023/01/06 06:21:29;;;;;;;3.20;0.90;;;13.30;99.90;;;;;;5078996;28;20215;-32
2023/01/06 06:24:01;;;;;;;3.17;0.90;;;13.30;99.90;;;;;;5060702;28;20230;-31
2023/01/06 06:26:28;;;;;;;2.07;0.90;;;13.30;99.90;;;;;;5067727;28;20268;-32
2023/01/06 06:28:57;;;;;;;1.27;0.70;;;13.30;99.90;;;;;;5063683;28;20689;-32
2023/01/06 06:31:30;;;;;;;0.80;0.60;;;13.30;99.90;;;;;;5064879;28;20212;-31
2023/01/06 06:34:00;;;;;;;1.60;0.70;;;13.30;99.90;;;;;;5056475;28;20291;-31
2023/01/06 06:36:30;;;;;;;2.03;0.77;;;13.30;99.90;;;;;;5064862;28;20192;-33
2023/01/06 06:38:57;;;;;;;1.17;0.73;;;13.30;99.90;;;;;;5063670;28;20327;-34
2023/01/06 06:41:27;;;;;;;1.73;0.80;;;13.30;99.90;;;;;;5062204;28;20550;-34
2023/01/06 06:43:55;;;;;;;1.90;0.60;;;13.30;99.90;;;;;;5061506;28;20210;-32
2023/01/06 06:46:27;;;;;;;2.20;1.00;;;13.30;99.90;;;;;;5059826;28;20204;-31
2023/01/06 06:48:54;;;;;;;1.47;0.90;;;13.30;99.90;;;;;;5059635;28;20230;-31
2023/01/06 06:51:22;;;;;;;1.20;0.77;;;13.30;99.90;;;;;;5058640;28;20227;-31
2023/01/06 06:53:52;;;;;;;1.17;0.70;;;13.30;99.90;;;;;;5056487;28;20306;-32
2023/01/06 06:56:23;;;;;;;2.17;0.63;;;13.30;99.90;;;;;;5059050;28;20216;-31
2023/01/06 06:58:53;;;;;;;1.27;0.90;;;13.30;99.90;;;;;;5061997;28;20215;-36
2023/01/06 07:01:20;;;;;;;1.07;0.70;;;13.30;99.90;;;;;;5060191;28;22679;-33
2023/01/06 07:03:48;;;;;;;0.53;0.50;;;13.30;99.90;;;;;;5080178;28;20681;-33
2023/01/06 07:06:19;;;;;;;0.80;0.73;;;13.30;99.90;;;;;;5060133;28;20207;-33
2023/01/06 07:08:47;;;;;;;1.10;0.70;;;13.30;99.90;;;;;;5066862;28;20223;-33
2023/01/06 07:11:15;;;;;;;1.57;0.60;;;13.40;99.90;;;;;;5065346;28;20204;-33
2023/01/06 07:13:45;;;;;;;2.57;0.70;;;13.40;99.90;;;;;;5057975;28;20596;-33
2023/01/06 07:16:18;;;;;;;0.93;0.60;;;13.40;99.90;;;;;;5058397;28;20196;-33
2023/01/06 07:18:46;;;;;;;1.97;0.50;;;13.40;99.90;;;;;;5061365;28;20720;-34
2023/01/06 07:21:18;;;;;;;1.40;0.60;;;13.40;99.90;;;;;;5065760;28;20278;-33
2023/01/06 07:23:47;;;;;;;0.93;0.53;;;13.40;99.90;;;;;;5062445;28;20302;-33
2023/01/06 07:26:16;;;;;;;0.80;0.53;;;13.40;99.90;;;;;;5063786;28;20689;-33
2023/01/06 07:28:46;;;;;;;2.20;0.50;;;13.40;99.90;;;;;;5060785;28;21013;-34
2023/01/06 07:31:13;;;;;;;1.23;0.80;;;13.40;99.90;;;;;;5061523;28;20658;-33
2023/01/06 07:33:43;;;;;;;1.53;0.50;;;13.50;99.90;;;;;;5057174;28;20216;-33
2023/01/06 07:36:10;;;;;;;1.70;0.60;;;13.40;99.90;;;;;;5055877;28;20212;-34
2023/01/06 07:38:37;;;;;;;1.10;0.47;;;13.40;99.90;;;;;;5062241;28;20202;-33
2023/01/06 07:41:06;;;;;;;2.20;0.83;;;13.50;99.90;;;;;;5056666;28;20677;-33
2023/01/06 07:43:34;;;;;;;0.77;0.50;;;13.50;99.90;;;;;;5060908;28;20293;-34
2023/01/06 07:46:03;;;;;;;0.93;0.50;;;13.50;99.90;;;;;;5067535;28;20294;-33
2023/01/06 07:48:30;;;;;;;1.13;0.53;;;13.50;99.90;;;;;;5057554;28;20281;-33
2023/01/06 07:51:02;;;;;;;3.03;0.67;;;13.50;99.90;;;;;;5058051;28;20243;-33
2023/01/06 07:53:30;;;;;;;1.27;0.70;;;13.50;99.90;;;;;;5059047;28;20660;-34
2023/01/06 07:55:59;;;;;;;1.57;0.70;;;13.50;99.90;;;;;;5061583;28;20200;-33
2023/01/06 07:58:28;;;;;;;1.03;0.60;;;13.50;99.90;;;;;;5060181;28;20247;-33
2023/01/06 08:01:03;;;;;;;2.07;1.03;;;13.50;99.90;;;;;;5061375;28;20203;-33
2023/01/06 08:03:36;;;;;;;0.77;0.50;;;13.50;99.90;;;;;;5065956;28;20200;-33
2023/01/06 08:06:11;;;;;;;1.07;0.73;;;13.50;99.90;;;;;;5066808;28;20344;-33
2023/01/06 08:08:40;;;;;;;0.77;0.60;;;13.50;99.90;;;;;;5062864;28;20771;-33
2023/01/06 08:11:09;;;;;;;1.30;0.70;;;13.50;99.90;;;;;;5064411;28;20223;-32
2023/01/06 08:13:41;;;;;;;0.63;0.63;;;13.50;99.90;;;;;;5062952;28;20249;-33
2023/01/06 08:16:10;;;;;;;2.90;0.80;;;13.50;99.90;;;;;;5066779;28;20525;-32
2023/01/06 08:18:40;;;;;;;0.73;0.60;;;13.50;99.90;;;;;;5063667;28;20208;-32
2023/01/06 08:21:09;;;;;;;1.33;0.60;;;13.50;99.90;;;;;;5063251;28;20290;-33
2023/01/06 08:23:37;;;;;;;1.10;0.90;;;13.50;99.90;;;;;;5065892;28;20257;-32
2023/01/06 08:26:14;;;;;;;0.77;0.67;;;13.50;99.90;;;;;;5066280;28;20203;-32
2023/01/06 08:28:43;;;;;;;1.53;0.80;;;13.50;99.90;;;;;;5062510;28;20310;-32
2023/01/06 08:31:13;;;;;;;1.27;0.57;;;13.50;99.90;;;;;;5065214;28;20195;-32
2023/01/06 08:33:41;;;;;;;2.27;0.60;;;13.50;99.90;;;;;;5065211;28;20211;-32
2023/01/06 08:36:11;;;;;;;0.80;0.73;;;13.60;99.90;;;;;;5064396;28;20506;-32
2023/01/06 08:38:40;;;;;;;1.13;0.60;;;13.60;99.90;;;;;;5048283;28;20212;-32
2023/01/06 08:41:08;;;;;;;1.50;0.50;;;13.60;99.90;;;;;;5062255;28;20253;-33
2023/01/06 08:43:35;;;;;;;2.27;0.60;;;13.60;99.90;;;;;;5064564;28;20316;-32
2023/01/06 08:46:05;;;;;;;0.30;0.30;;;13.60;99.90;;;;;;5066918;28;20199;-33
2023/01/06 08:48:34;;;;;;;1.00;0.50;;;13.60;99.90;;;;;;5066692;28;20223;-33
2023/01/06 08:51:03;;;;;;;1.73;0.73;;;13.60;99.90;;;;;;5065373;28;20239;-33
2023/01/06 08:53:35;;;;;;;2.43;0.70;;;13.60;99.90;;;;;;5062460;28;20215;-32
2023/01/06 08:56:03;;;;;;;0.53;0.50;;;13.60;99.90;;;;;;5060988;28;20977;-33
2023/01/06 08:58:31;;;;;;;2.43;0.60;;;13.60;99.90;;;;;;5065269;28;20698;-32
2023/01/06 09:01:03;;;;;;;1.70;0.60;;;13.60;99.90;;;;;;5065163;28;20204;-32
2023/01/06 09:03:33;;;;;;;1.10;0.60;;;13.60;99.90;;;;;;5066266;28;20558;-32
2023/01/06 09:06:00;;;;;;;0.60;0.60;;;13.60;99.90;;;;;;5065489;28;20749;-32
2023/01/06 09:08:27;;;;;;;0.57;0.57;;;13.60;99.90;;;;;;5060260;28;20216;-33
2023/01/06 09:10:54;;;;;;;1.40;0.67;;;13.60;99.90;;;;;;5061939;28;20231;-32
2023/01/06 09:13:21;;;;;;;3.17;0.60;;;13.70;99.90;;;;;;5058921;28;20207;-33
2023/01/06 09:15:51;;;;;;;1.23;0.60;;;13.70;99.90;;;;;;5075216;28;20273;-32
2023/01/06 09:18:18;;;;;;;0.73;0.60;;;13.70;99.90;;;;;;5064420;28;20215;-32
2023/01/06 09:20:46;;;;;;;0.70;0.60;;;13.70;99.90;;;;;;5064402;28;20608;-32
2023/01/06 09:23:13;;;;;;;0.77;0.60;;;13.70;99.90;;;;;;5064249;28;20292;-32
2023/01/06 09:25:42;;;;;;;1.20;0.50;;;13.80;99.90;;;;;;5059983;28;20238;-32
2023/01/06 09:28:12;;;;;;;0.40;0.40;;;13.80;99.90;;;;;;5063297;28;20835;-32
2023/01/06 09:30:45;;;;;;;2.20;0.73;;;13.80;99.90;;;;;;5063412;28;20686;-32
2023/01/06 09:33:14;;;;;;;2.93;0.60;;;13.80;99.90;;;;;;5064686;28;20296;-32
2023/01/06 09:35:46;;;;;;;1.10;0.50;;;13.80;99.90;;;;;;5062990;28;20678;-34
2023/01/06 09:38:16;;;;;;;1.70;0.60;;;13.80;99.90;;;;;;5064245;28;20209;-32
2023/01/06 09:41:22;;;;;;;1.50;0.60;;;13.80;99.90;;;;;;5062673;28;20228;-32
2023/01/06 09:44:12;;;;;;;0.80;0.50;;;13.80;99.90;;;;;;5053794;28;20207;-32
2023/01/06 09:46:42;;;;;;;1.17;0.70;;;13.90;99.90;;;;;;5053043;28;20228;-32
2023/01/06 09:49:34;;;;;;;1.27;0.70;;;13.90;99.90;;;;;;5045481;28;20220;-32
2023/01/06 09:52:08;;;;;;;1.30;0.70;;;13.90;99.90;;;;;;5059449;28;21385;-32
2023/01/06 09:54:45;;;;;;;0.70;0.67;;;13.90;99.90;;;;;;5065095;28;20198;-32
2023/01/06 09:57:20;;;;;;;0.40;0.37;;;13.90;99.90;;;;;;5064712;28;20582;-32
2023/01/06 09:59:54;;;;;;;2.07;0.80;;;13.90;99.90;;;;;;5059730;28;20734;-32
2023/01/06 10:02:53;;;;;;;1.40;0.70;;;13.90;99.90;;;;;;5060285;28;20210;-32
2023/01/06 10:05:40;;;;;;;1.77;0.90;;;13.90;99.90;;;;;;5065115;28;20211;-33
2023/01/06 10:08:44;;;;;;;2.20;0.87;;;13.90;99.90;;;;;;5063111;28;20223;-32
2023/01/06 10:11:22;;;;;;;1.47;0.70;;;14.00;99.90;;;;;;5051161;28;20199;-32
2023/01/06 10:14:28;;;;;;;1.93;0.70;;;14.00;99.90;;;;;;5060583;28;20306;-32
2023/01/06 10:17:09;;;;;;;2.20;0.80;;;14.00;99.90;;;;;;5055731;28;20298;-33
2023/01/06 10:19:36;;;;;;;1.13;0.90;;;14.00;99.90;;;;;;5050277;28;20627;-32
2023/01/06 10:22:28;;;;;;;1.00;0.80;;;13.90;99.90;;;;;;5065060;28;20206;-31
2023/01/06 10:25:13;;;;;;;1.90;1.00;;;13.90;99.90;;;;;;5065243;28;20326;-31
2023/01/06 10:28:00;;;;;;;1.00;0.90;;;13.90;99.90;;;;;;5068978;28;20645;-31
2023/01/06 10:30:49;;;;;;;1.97;0.90;;;13.90;99.90;;;;;;5067706;28;20223;-32
2023/01/06 10:33:40;;;;;;;1.67;1.00;;;14.00;99.90;;;;;;5066181;28;20219;-31
2023/01/06 10:36:15;;;;;;;1.90;1.03;;;14.00;99.90;;;;;;5067813;28;20566;-31
2023/01/06 10:38:46;;;;;;;2.53;0.80;;;14.00;99.90;;;;;;5036226;28;20235;-31
2023/01/06 10:41:42;;;;;;;1.57;0.93;;;14.00;99.90;;;;;;5061718;28;20231;-31
2023/01/06 10:44:10;;;;;;;0.80;0.80;;;14.00;99.90;;;;;;5067795;28;20303;-31
2023/01/06 10:46:38;;;;;;;3.23;0.93;;;14.00;99.90;;;;;;5069667;28;20199;-32
2023/01/06 10:49:14;;;;;;;1.17;1.07;;;14.00;99.90;;;;;;5071315;28;20215;-31
2023/01/06 10:51:44;;;;;;;1.10;0.90;;;14.00;99.90;;;;;;5071295;28;20687;-31
2023/01/06 10:54:40;;;;;;;2.17;1.23;;;14.00;99.90;;;;;;5069701;28;20196;-32
2023/01/06 10:57:25;;;;;;;2.97;1.20;;;14.00;99.90;;;;;;5066102;28;20332;-31
2023/01/06 11:00:11;;;;;;;1.73;1.10;;;14.10;99.90;;;;;;5067429;28;20203;-32
2023/01/06 11:02:46;;;;;;;1.63;1.00;;;14.10;99.90;;;;;;5067112;28;20203;-31
2023/01/06 11:05:23;;;;;;;1.20;1.10;;;14.10;99.90;;;;;;5065340;28;20766;-31
2023/01/06 11:08:03;;;;;;;2.13;0.77;;;14.10;99.90;;;;;;5064488;28;20219;-32
2023/01/06 11:10:43;;;;;;;1.63;1.00;;;14.20;99.90;;;;;;5067506;28;20236;-32
2023/01/06 11:13:37;;;;;;;2.20;0.97;;;14.20;99.90;;;;;;5064324;28;20195;-32
2023/01/06 11:16:24;;;;;;;2.30;0.80;;;14.20;99.90;;;;;;5068085;28;20235;-32
2023/01/06 11:19:01;;;;;;;1.97;0.80;;;14.20;99.90;;;;;;5065878;28;20298;-32
2023/01/06 11:21:43;;;;;;;1.27;0.70;;;14.20;99.90;;;;;;5066709;28;20205;-30
2023/01/06 11:24:22;;;;;;;1.70;1.00;;;14.20;99.90;;;;;;5063383;28;20215;-32
2023/01/06 11:26:52;;;;;;;1.47;0.80;;;14.20;99.90;;;;;;5067685;28;20214;-32
2023/01/06 11:29:34;;;;;;;0.70;0.50;;;14.20;99.90;;;;;;5064027;28;20211;-31
2023/01/06 11:32:14;;;;;;;0.90;0.90;;;14.30;99.90;;;;;;5066788;28;20204;-32
2023/01/06 11:34:55;;;;;;;1.13;0.70;;;14.30;99.90;;;;;;5066520;28;20280;-31
2023/01/06 11:37:39;;;;;;;1.60;1.13;;;14.30;99.90;;;;;;5065594;28;20219;-37
2023/01/06 11:40:16;;;;;;;0.87;0.60;;;14.30;99.90;;;;;;5067621;28;20222;-32
2023/01/06 11:42:48;;;;;;;0.50;0.50;;;14.30;99.90;;;;;;5065533;28;20203;-32
2023/01/06 11:45:55;;;;;;;0.60;0.60;;;14.30;99.90;;;;;;5067695;28;20298;-32
2023/01/06 11:48:35;;;;;;;0.80;0.60;;;14.30;99.90;;;;;;5067724;28;20199;-31
2023/01/06 11:51:07;;;;;;;1.20;0.60;;;14.30;99.90;;;;;;5068116;28;20227;-32
2023/01/06 11:53:37;;;;;;;0.60;0.60;;;14.30;99.90;;;;;;5050408;28;20223;-32
2023/01/06 11:56:12;;;;;;;1.70;0.80;;;14.30;99.90;;;;;;5066076;28;20221;-32
2023/01/06 11:58:50;;;;;;;0.80;0.60;;;14.30;99.90;;;;;;5068134;28;20203;-32
2023/01/06 12:01:41;;;;;;;0.60;0.50;;;14.30;99.90;;;;;;5068186;28;20191;-31
2023/01/06 12:04:25;;;;;;;0.77;0.77;;;14.40;99.90;;;;;;5068122;28;20220;-32
2023/01/06 12:07:06;;;;;;;0.80;0.70;;;14.40;99.90;;;;;;5067622;28;20633;-32
2023/01/06 12:09:40;;;;;;;0.70;0.63;;;14.40;99.90;;;;;;5067957;28;20352;-32
2023/01/06 12:12:11;;;;;;;0.73;0.63;;;14.40;99.90;;;;;;5067754;28;20299;-32
2023/01/06 12:14:43;;;;;;;0.70;0.70;;;14.40;99.90;;;;;;5067662;28;20206;-32
2023/01/06 12:17:36;;;;;;;0.90;0.60;;;14.40;99.90;;;;;;5067790;28;20322;-32
2023/01/06 12:20:18;;;;;;;1.67;0.77;;;14.40;99.90;;;;;;5065929;28;20709;-32
2023/01/06 12:23:15;;;;;;;1.30;0.73;;;14.40;99.90;;;;;;5066114;28;20725;-32
2023/01/06 12:25:47;;;;;;;0.90;0.60;;;14.40;99.90;;;;;;5063479;28;20298;-32
2023/01/06 12:28:22;;;;;;;0.53;0.53;;;14.40;99.90;;;;;;5049563;28;20199;-31
2023/01/06 12:30:56;;;;;;;0.53;0.50;;;14.40;99.90;;;;;;5065878;28;20235;-32
2023/01/06 12:33:31;;;;;;;1.27;0.67;;;14.40;99.90;;;;;;5067295;28;20218;-32
2023/01/06 12:36:03;;;;;;;0.50;0.50;;;14.40;99.90;;;;;;5066000;28;20608;-32
2023/01/06 12:38:53;;;;;;;1.07;0.80;;;14.40;99.90;;;;;;5067010;28;20265;-32
2023/01/06 12:41:33;;;;;;;0.77;0.70;;;14.40;99.90;;;;;;5067289;28;20199;-32
2023/01/06 12:44:40;;;;;;;1.53;0.90;;;14.40;99.90;;;;;;5067228;28;20841;-31
2023/01/06 12:47:36;;;;;;;2.17;0.90;;;14.40;99.90;;;;;;5066507;28;20768;-31
2023/01/06 12:50:38;;;;;;;1.00;0.90;;;14.40;99.90;;;;;;5066245;28;20709;-31
2023/01/06 12:53:23;;;;;;;1.80;0.97;;;14.40;99.90;;;;;;5065921;28;20226;-31
2023/01/06 12:56:26;;;;;;;1.30;0.90;;;14.40;99.90;;;;;;5065550;28;20192;-32
2023/01/06 12:59:20;;;;;;;2.03;1.03;;;14.40;99.90;;;;;;5065386;28;20199;-31
2023/01/06 13:02:30;;;;;;;1.53;0.80;;;14.40;99.90;;;;;;5067291;28;20196;-31
2023/01/06 13:05:03;;;;;;;2.60;0.90;;;14.40;99.90;;;;;;5066918;28;20609;-31
2023/01/06 13:07:35;;;;;;;1.67;0.80;;;14.40;99.90;;;;;;5065257;28;20484;-32
2023/01/06 13:10:21;;;;;;;1.00;0.80;;;14.40;99.90;;;;;;5065189;28;20310;-32
2023/01/06 13:13:06;;;;;;;3.03;0.80;;;14.40;99.90;;;;;;5066465;28;20302;-31
2023/01/06 13:15:37;;;;;;;1.37;1.13;;;14.50;99.90;;;;;;5066200;28;20563;-33
2023/01/06 13:18:23;;;;;;;1.23;1.07;;;14.50;99.90;;;;;;5066402;28;20298;-32
2023/01/06 13:21:02;;;;;;;1.30;1.20;;;14.50;99.90;;;;;;5066470;28;20203;-31
2023/01/06 13:23:48;;;;;;;2.23;1.50;;;14.50;99.90;;;;;;5066417;28;20265;-31
2023/01/06 13:26:30;;;;;;;1.33;1.13;;;14.50;99.90;;;;;;5066775;28;20219;-31
2023/01/06 13:29:01;;;;;;;1.63;1.40;;;14.50;99.90;;;;;;5066476;28;20306;-32
2023/01/06 13:31:42;;;;;;;2.03;1.30;;;14.50;99.90;;;;;;5064405;28;20322;-31